Live Your Life

Объявление

Информация о пользователе

Привет, Гость! Войдите или зарегистрируйтесь.


Вы здесь » Live Your Life » Неформат


Неформат

Тем 1 страница 30 из 36

Тема Ответов Просмотров Последнее сообщение
72 2865 Сегодня 07:34:03  DeWitt
30 795 Сегодня 06:46:09  Luiziata
1 53 Вчера 16:12:14  Fireridge
25 644 Вчера 12:43:43  до_одури
197 11566 Вчера 11:13:28  LRS
14 920 23-09-2018 14:34:30  Marazula
3 95 23-09-2018 14:04:57  Pa-ku
26 845 23-09-2018 12:51:55  Mowin
9 Deviant  переснежник
2 119 23-09-2018 11:16:40  Teacook
10 Tempus Futurum  Jonah
8 323 21-09-2018 20:08:29  Jonah
11 false impulse  aurum seneca
10 267 18-09-2018 21:51:52  aurum seneca
0 39 18-09-2018 21:24:35  Morgoth
13 В шаге от трона  Королевство Камбрия
3 111 17-09-2018 18:09:30  Королевство Камбрия
14 Космический ветер  Кот капитана Флинта  [ Тема 14 Page 1 Тема 14 Page 2 ]
28 1384 17-09-2018 00:17:11  Кот капитана Флинта
19 398 16-09-2018 18:43:03  Heath
25 1031 14-09-2018 00:34:44  Огнеязыцый
42 4377 10-09-2018 17:51:01  Prologue
172 5033 10-09-2018 11:38:37  Vitaminka
19 Nex[t]us  Melinda
8 896 06-09-2018 17:21:06  Melinda
20 Нассау  Летучий Голландец  [ Тема 20 Page 1 Тема 20 Page 2 Тема 20 Page 3 ]
41 2087 04-09-2018 18:41:48  Флинт
21 Holy Sh!t  грандоченька смерти
3 162 02-09-2018 16:21:45  грандоченька смерти
22 Dreams Of Crown  на мечах
17 563 01-09-2018 12:41:22  на мечах
0 87 01-09-2018 05:59:17  Jin Archer
10 1193 31-08-2018 13:53:42  Генеральный секретарь
25 Calmsector  banterface
1 130 30-08-2018 21:11:34  banterface
26 Ramorum  Erinell Yoshioka
5 312 22-08-2018 16:33:00  Erinell Yoshioka
24 1201 22-08-2018 16:01:27  Эстелла Ортега
11 1805 22-08-2018 15:27:40  cinemaniachka
29 God's blessing  Сумэраги
7 511 22-08-2018 09:41:12  Сумэраги
32 1592 06-08-2018 14:08:06  Дэк

Вы здесь » Live Your Life » Неформат


Рейтинг форумов | Создать форум бесплатно © 2007–2017 «QuadroSystems» LLC